Aeroporto :
LOGIN :

Iscrizione | Disclaimer

   EN    FR    IT 

 










Sommario :    VFR   VFR Marginale   IFR   IFR Intensivo   IFR Molto Intensivo
Visibilità : 
Base nubi : 
>= 8 km
>= 3000ft
5 / 8 km
1000 / 3000 ft
1500m / 5 km
500 / 1000 ft
800 / 1500m
200 / 500 ft
< 800m
< 200 ft
Simboli :   Temporali  Nebbia  Neve Forte  Precipitazioni Forti  Vento > 20 kt
SIGMETs :   Varie  Temporali  Ghiacco  Turbolenza  Onda orograficha  Ceneri Vulcaniche






- Altitudine del aeroporto : 755 ft
- Codice IATA : DRS


EDDC - Dresden Klotzsche

ULTIMO METAR :
  • 200150Z 27014KT 240V300 9999 BKN016 03/01 Q1014

METARs OBSOLETI :
  • 200120Z 26013G23KT 9999 -RADZ BKN013 03/01 Q1014
  • 200050Z 26014G25KT 9999 -RADZ SCT012 BKN016 03/01 Q1014
  • 200020Z 26013KT 230V290 9999 -RADZ SCT013 BKN018 03/00 Q1014
  • 192350Z 25013KT 220V280 9999 -RADZ BKN013 BKN020 02/00 Q1014
  • 192320Z 25013G25KT 210V290 9999 BKN011 02/00 Q1014

TAF TAF EDDC
Valido dal 20 a 00 ore il 21 a 00 ore UTC


192300Z 2000/2024 26015G25KT 9999 BKN015
TEMPO 2000/2003 2500 -RASN BKN010
PROB30
TEMPO 2001/2003 BKN008
TEMPO 2005/2009 1400 SHSN BKN004 BKN010CB
TEMPO 2008/2014 29020G30KT
BECMG 2016/2019 29010KT



MetMap, La meteo Aeronautica in un colpo d'occhio ! - Copyright ORBIFLY Dicembre 2007 - Disclaimer

ORBIFLY MET'MAP TEAM :

Programmazione e sviluppo : Alexandra Zaïnal
Concezione : Baudouin d'Aumeries
Aiuto per la programmazione : Marc-Olivier Méhu
Supporto tecnico e logistico : Manuel Goepfert
Aiuto per la traduzione : Arnaldo La Scala

Contatto : metmap@orbifly.com




FONTI E CREDITI :

   NOAA